sensor_id;sensor_type;location;lat;lon;timestamp;P1;durP1;ratioP1;P2;durP2;ratioP2
62102;SDS011;48077;48.104;11.702;2023-08-06T00:01:26;92.40;;;83.32;;
62102;SDS011;48077;48.104;11.702;2023-08-06T00:07:40;112.28;;;100.25;;
62102;SDS011;48077;48.104;11.702;2023-08-06T00:10:04;108.47;;;97.18;;
62102;SDS011;48077;48.104;11.702;2023-08-06T00:12:27;110.35;;;98.90;;
62102;SDS011;48077;48.104;11.702;2023-08-06T00:14:51;107.18;;;96.18;;
62102;SDS011;48077;48.104;11.702;2023-08-06T00:17:15;111.50;;;99.75;;
62102;SDS011;48077;48.104;11.702;2023-08-06T00:19:39;105.53;;;94.80;;
62102;SDS011;48077;48.104;11.702;2023-08-06T00:22:02;107.13;;;96.13;;
62102;SDS011;48077;48.104;11.702;2023-08-06T00:24:25;108.40;;;97.20;;
62102;SDS011;48077;48.104;11.702;2023-08-06T00:26:49;105.72;;;95.03;;
62102;SDS011;48077;48.104;11.702;2023-08-06T00:29:12;106.93;;;96.07;;
62102;SDS011;48077;48.104;11.702;2023-08-06T00:31:35;107.85;;;96.82;;
62102;SDS011;48077;48.104;11.702;2023-08-06T00:33:59;99.35;;;89.38;;
62102;SDS011;48077;48.104;11.702;2023-08-06T00:36:22;98.60;;;88.85;;
62102;SDS011;48077;48.104;11.702;2023-08-06T00:38:46;101.70;;;91.57;;
62102;SDS011;48077;48.104;11.702;2023-08-06T00:41:09;102.13;;;91.68;;
62102;SDS011;48077;48.104;11.702;2023-08-06T00:43:32;102.05;;;91.78;;
62102;SDS011;48077;48.104;11.702;2023-08-06T00:45:56;104.95;;;94.25;;
62102;SDS011;48077;48.104;11.702;2023-08-06T00:48:19;103.35;;;92.68;;
62102;SDS011;48077;48.104;11.702;2023-08-06T00:50:43;104.05;;;93.28;;
62102;SDS011;48077;48.104;11.702;2023-08-06T00:53:06;106.32;;;95.28;;
62102;SDS011;48077;48.104;11.702;2023-08-06T00:55:30;105.03;;;94.35;;
62102;SDS011;48077;48.104;11.702;2023-08-06T00:57:53;106.00;;;95.18;;
62102;SDS011;48077;48.104;11.702;2023-08-06T01:00:19;105.75;;;94.65;;
62102;SDS011;48077;48.104;11.702;2023-08-06T01:02:43;103.22;;;92.72;;
62102;SDS011;48077;48.104;11.702;2023-08-06T01:05:07;108.97;;;97.40;;
62102;SDS011;48077;48.104;11.702;2023-08-06T01:13:08;109.25;;;98.05;;
62102;SDS011;48077;48.104;11.702;2023-08-06T01:15:46;113.70;;;101.65;;
62102;SDS011;48077;48.104;11.702;2023-08-06T01:18:13;112.93;;;101.13;;
62102;SDS011;48077;48.104;11.702;2023-08-06T01:20:36;108.88;;;97.57;;
62102;SDS011;48077;48.104;11.702;2023-08-06T01:23:00;113.40;;;101.20;;
62102;SDS011;48077;48.104;11.702;2023-08-06T01:25:26;113.90;;;101.65;;
62102;SDS011;48077;48.104;11.702;2023-08-06T01:27:56;114.55;;;102.30;;
62102;SDS011;48077;48.104;11.702;2023-08-06T01:30:29;112.60;;;100.50;;
62102;SDS011;48077;48.104;11.702;2023-08-06T01:32:58;112.65;;;100.80;;
62102;SDS011;48077;48.104;11.702;2023-08-06T01:35:26;112.72;;;100.72;;
62102;SDS011;48077;48.104;11.702;2023-08-06T01:37:51;110.80;;;99.15;;
62102;SDS011;48077;48.104;11.702;2023-08-06T01:40:15;113.13;;;100.97;;
62102;SDS011;48077;48.104;11.702;2023-08-06T01:42:38;115.70;;;103.22;;
62102;SDS011;48077;48.104;11.702;2023-08-06T01:45:02;108.10;;;97.03;;
62102;SDS011;48077;48.104;11.702;2023-08-06T01:47:26;110.25;;;98.85;;
62102;SDS011;48077;48.104;11.702;2023-08-06T01:49:49;109.65;;;98.30;;
62102;SDS011;48077;48.104;11.702;2023-08-06T01:52:12;109.28;;;97.90;;
62102;SDS011;48077;48.104;11.702;2023-08-06T01:54:36;110.03;;;98.68;;
62102;SDS011;48077;48.104;11.702;2023-08-06T01:56:59;111.65;;;100.03;;
62102;SDS011;48077;48.104;11.702;2023-08-06T01:59:22;112.82;;;100.95;;
62102;SDS011;48077;48.104;11.702;2023-08-06T02:01:46;108.95;;;97.80;;
62102;SDS011;48077;48.104;11.702;2023-08-06T02:04:09;109.55;;;98.07;;
62102;SDS011;48077;48.104;11.702;2023-08-06T02:06:32;111.28;;;99.82;;
62102;SDS011;48077;48.104;11.702;2023-08-06T02:08:56;113.40;;;101.30;;
62102;SDS011;48077;48.104;11.702;2023-08-06T02:11:19;110.93;;;99.40;;
62102;SDS011;48077;48.104;11.702;2023-08-06T02:13:43;112.68;;;100.88;;
62102;SDS011;48077;48.104;11.702;2023-08-06T02:16:09;109.38;;;98.05;;
62102;SDS011;48077;48.104;11.702;2023-08-06T02:18:32;110.35;;;99.05;;
62102;SDS011;48077;48.104;11.702;2023-08-06T02:20:59;112.50;;;100.45;;
62102;SDS011;48077;48.104;11.702;2023-08-06T02:23:22;110.30;;;98.75;;
62102;SDS011;48077;48.104;11.702;2023-08-06T02:25:46;112.40;;;100.53;;
62102;SDS011;48077;48.104;11.702;2023-08-06T02:28:09;115.38;;;103.15;;
62102;SDS011;48077;48.104;11.702;2023-08-06T02:30:32;113.07;;;101.28;;
62102;SDS011;48077;48.104;11.702;2023-08-06T02:32:56;113.47;;;101.55;;
62102;SDS011;48077;48.104;11.702;2023-08-06T02:35:19;111.10;;;99.65;;
62102;SDS011;48077;48.104;11.702;2023-08-06T02:37:43;113.28;;;101.45;;
62102;SDS011;48077;48.104;11.702;2023-08-06T02:40:06;111.68;;;99.97;;
62102;SDS011;48077;48.104;11.702;2023-08-06T02:42:30;111.15;;;99.78;;
62102;SDS011;48077;48.104;11.702;2023-08-06T02:44:53;108.72;;;97.72;;
62102;SDS011;48077;48.104;11.702;2023-08-06T02:47:20;112.97;;;101.22;;
62102;SDS011;48077;48.104;11.702;2023-08-06T02:49:43;109.20;;;97.82;;
62102;SDS011;48077;48.104;11.702;2023-08-06T02:52:07;109.78;;;98.63;;
62102;SDS011;48077;48.104;11.702;2023-08-06T02:54:30;108.85;;;97.72;;
62102;SDS011;48077;48.104;11.702;2023-08-06T02:56:54;112.07;;;100.43;;
62102;SDS011;48077;48.104;11.702;2023-08-06T02:59:17;109.75;;;98.35;;
62102;SDS011;48077;48.104;11.702;2023-08-06T03:01:40;112.53;;;100.82;;
62102;SDS011;48077;48.104;11.702;2023-08-06T03:04:04;113.80;;;101.80;;
62102;SDS011;48077;48.104;11.702;2023-08-06T03:06:28;112.53;;;100.85;;
62102;SDS011;48077;48.104;11.702;2023-08-06T03:08:53;112.93;;;101.13;;
62102;SDS011;48077;48.104;11.702;2023-08-06T03:11:17;110.75;;;99.25;;
62102;SDS011;48077;48.104;11.702;2023-08-06T03:13:40;110.70;;;99.35;;
62102;SDS011;48077;48.104;11.702;2023-08-06T03:16:03;112.20;;;100.70;;
62102;SDS011;48077;48.104;11.702;2023-08-06T03:18:27;114.03;;;102.18;;
62102;SDS011;48077;48.104;11.702;2023-08-06T03:20:50;116.32;;;104.15;;
62102;SDS011;48077;48.104;11.702;2023-08-06T03:23:14;120.22;;;107.18;;
62102;SDS011;48077;48.104;11.702;2023-08-06T03:25:37;116.60;;;104.00;;
62102;SDS011;48077;48.104;11.702;2023-08-06T03:28:00;113.15;;;100.85;;
62102;SDS011;48077;48.104;11.702;2023-08-06T03:30:24;113.95;;;102.03;;
62102;SDS011;48077;48.104;11.702;2023-08-06T03:32:47;114.53;;;102.43;;
62102;SDS011;48077;48.104;11.702;2023-08-06T03:35:11;115.72;;;103.35;;
62102;SDS011;48077;48.104;11.702;2023-08-06T03:37:34;115.20;;;103.00;;
62102;SDS011;48077;48.104;11.702;2023-08-06T03:39:57;117.53;;;104.85;;
62102;SDS011;48077;48.104;11.702;2023-08-06T03:42:21;119.43;;;106.80;;
62102;SDS011;48077;48.104;11.702;2023-08-06T03:44:44;116.65;;;104.28;;
62102;SDS011;48077;48.104;11.702;2023-08-06T03:47:08;117.40;;;104.90;;
62102;SDS011;48077;48.104;11.702;2023-08-06T03:49:31;120.45;;;107.30;;
62102;SDS011;48077;48.104;11.702;2023-08-06T03:51:54;120.82;;;107.78;;
62102;SDS011;48077;48.104;11.702;2023-08-06T03:54:18;119.05;;;106.28;;
62102;SDS011;48077;48.104;11.702;2023-08-06T03:56:41;118.35;;;105.75;;
62102;SDS011;48077;48.104;11.702;2023-08-06T03:59:04;122.07;;;108.38;;
62102;SDS011;48077;48.104;11.702;2023-08-06T04:01:28;119.65;;;106.90;;
62102;SDS011;48077;48.104;11.702;2023-08-06T04:03:51;117.60;;;105.10;;
62102;SDS011;48077;48.104;11.702;2023-08-06T04:06:15;122.40;;;108.45;;
62102;SDS011;48077;48.104;11.702;2023-08-06T04:08:38;122.38;;;109.03;;
62102;SDS011;48077;48.104;11.702;2023-08-06T04:11:01;119.95;;;107.15;;
62102;SDS011;48077;48.104;11.702;2023-08-06T04:13:25;119.88;;;107.10;;
62102;SDS011;48077;48.104;11.702;2023-08-06T04:15:48;118.57;;;105.97;;
62102;SDS011;48077;48.104;11.702;2023-08-06T04:18:12;120.32;;;107.18;;
62102;SDS011;48077;48.104;11.702;2023-08-06T04:20:36;116.05;;;103.75;;
62102;SDS011;48077;48.104;11.702;2023-08-06T04:23:05;121.10;;;108.03;;
62102;SDS011;48077;48.104;11.702;2023-08-06T04:25:29;116.63;;;104.20;;
62102;SDS011;48077;48.104;11.702;2023-08-06T04:27:52;117.70;;;105.18;;
62102;SDS011;48077;48.104;11.702;2023-08-06T04:30:16;120.60;;;107.50;;
62102;SDS011;48077;48.104;11.702;2023-08-06T04:32:39;120.85;;;107.82;;
62102;SDS011;48077;48.104;11.702;2023-08-06T04:35:03;122.43;;;108.95;;
62102;SDS011;48077;48.104;11.702;2023-08-06T04:37:26;121.22;;;108.10;;
62102;SDS011;48077;48.104;11.702;2023-08-06T04:39:50;122.88;;;109.68;;
62102;SDS011;48077;48.104;11.702;2023-08-06T04:42:15;119.90;;;106.97;;
62102;SDS011;48077;48.104;11.702;2023-08-06T04:44:39;118.28;;;105.72;;
62102;SDS011;48077;48.104;11.702;2023-08-06T04:47:02;119.93;;;107.03;;
62102;SDS011;48077;48.104;11.702;2023-08-06T04:49:25;117.80;;;105.13;;
62102;SDS011;48077;48.104;11.702;2023-08-06T04:51:49;119.43;;;106.70;;
62102;SDS011;48077;48.104;11.702;2023-08-06T04:54:12;119.93;;;106.97;;
62102;SDS011;48077;48.104;11.702;2023-08-06T04:56:36;117.05;;;104.70;;
62102;SDS011;48077;48.104;11.702;2023-08-06T04:58:59;118.43;;;105.80;;
62102;SDS011;48077;48.104;11.702;2023-08-06T05:01:25;121.10;;;107.95;;
62102;SDS011;48077;48.104;11.702;2023-08-06T05:03:49;115.90;;;103.63;;
62102;SDS011;48077;48.104;11.702;2023-08-06T05:06:12;117.38;;;104.93;;
62102;SDS011;48077;48.104;11.702;2023-08-06T05:08:35;120.28;;;107.38;;
62102;SDS011;48077;48.104;11.702;2023-08-06T05:10:59;119.43;;;106.68;;
62102;SDS011;48077;48.104;11.702;2023-08-06T05:13:22;116.90;;;104.13;;
62102;SDS011;48077;48.104;11.702;2023-08-06T05:15:46;120.35;;;107.53;;
62102;SDS011;48077;48.104;11.702;2023-08-06T05:18:09;115.80;;;103.40;;
62102;SDS011;48077;48.104;11.702;2023-08-06T05:20:36;114.90;;;102.93;;
62102;SDS011;48077;48.104;11.702;2023-08-06T05:23:00;122.28;;;108.65;;
62102;SDS011;48077;48.104;11.702;2023-08-06T05:25:23;115.60;;;103.38;;
62102;SDS011;48077;48.104;11.702;2023-08-06T05:27:47;120.57;;;107.30;;
62102;SDS011;48077;48.104;11.702;2023-08-06T05:30:10;114.28;;;102.15;;
62102;SDS011;48077;48.104;11.702;2023-08-06T05:32:34;114.68;;;102.65;;
62102;SDS011;48077;48.104;11.702;2023-08-06T05:34:57;118.03;;;105.10;;
62102;SDS011;48077;48.104;11.702;2023-08-06T05:37:23;116.68;;;104.20;;
62102;SDS011;48077;48.104;11.702;2023-08-06T05:39:46;116.85;;;104.47;;
62102;SDS011;48077;48.104;11.702;2023-08-06T05:42:10;117.03;;;104.63;;
62102;SDS011;48077;48.104;11.702;2023-08-06T05:44:33;113.80;;;101.97;;
62102;SDS011;48077;48.104;11.702;2023-08-06T05:46:56;119.50;;;106.82;;
62102;SDS011;48077;48.104;11.702;2023-08-06T05:49:20;116.85;;;104.40;;
62102;SDS011;48077;48.104;11.702;2023-08-06T05:51:43;112.90;;;101.13;;
62102;SDS011;48077;48.104;11.702;2023-08-06T05:54:06;114.82;;;102.70;;
62102;SDS011;48077;48.104;11.702;2023-08-06T05:56:30;115.40;;;103.13;;
62102;SDS011;48077;48.104;11.702;2023-08-06T05:58:53;114.00;;;102.05;;
62102;SDS011;48077;48.104;11.702;2023-08-06T06:01:17;113.55;;;101.55;;
62102;SDS011;48077;48.104;11.702;2023-08-06T06:03:40;116.72;;;104.35;;
62102;SDS011;48077;48.104;11.702;2023-08-06T06:06:03;112.28;;;100.68;;
62102;SDS011;48077;48.104;11.702;2023-08-06T06:08:27;115.43;;;103.18;;
62102;SDS011;48077;48.104;11.702;2023-08-06T06:10:50;113.65;;;101.70;;
62102;SDS011;48077;48.104;11.702;2023-08-06T06:13:14;115.75;;;102.70;;
62102;SDS011;48077;48.104;11.702;2023-08-06T06:15:37;113.22;;;101.32;;
62102;SDS011;48077;48.104;11.702;2023-08-06T06:18:01;110.57;;;99.18;;
62102;SDS011;48077;48.104;11.702;2023-08-06T06:20:24;110.50;;;98.97;;
62102;SDS011;48077;48.104;11.702;2023-08-06T06:22:48;118.82;;;105.95;;
62102;SDS011;48077;48.104;11.702;2023-08-06T06:25:11;117.97;;;105.20;;
62102;SDS011;48077;48.104;11.702;2023-08-06T06:27:34;118.80;;;105.93;;
62102;SDS011;48077;48.104;11.702;2023-08-06T06:29:58;113.13;;;101.32;;
62102;SDS011;48077;48.104;11.702;2023-08-06T06:32:21;115.50;;;103.22;;
62102;SDS011;48077;48.104;11.702;2023-08-06T06:34:45;113.10;;;101.22;;
62102;SDS011;48077;48.104;11.702;2023-08-06T06:37:08;113.93;;;101.57;;
62102;SDS011;48077;48.104;11.702;2023-08-06T06:39:31;114.30;;;102.25;;
62102;SDS011;48077;48.104;11.702;2023-08-06T06:41:57;109.82;;;98.53;;
62102;SDS011;48077;48.104;11.702;2023-08-06T06:44:20;112.85;;;100.95;;
62102;SDS011;48077;48.104;11.702;2023-08-06T06:46:44;107.38;;;96.30;;
62102;SDS011;48077;48.104;11.702;2023-08-06T06:49:07;114.13;;;101.85;;
62102;SDS011;48077;48.104;11.702;2023-08-06T06:51:30;113.47;;;101.45;;
62102;SDS011;48077;48.104;11.702;2023-08-06T06:53:55;112.57;;;100.75;;
62102;SDS011;48077;48.104;11.702;2023-08-06T06:56:18;109.70;;;98.03;;
62102;SDS011;48077;48.104;11.702;2023-08-06T06:58:41;107.65;;;96.50;;
62102;SDS011;48077;48.104;11.702;2023-08-06T07:01:05;110.57;;;98.75;;
62102;SDS011;48077;48.104;11.702;2023-08-06T07:03:29;107.00;;;95.97;;
62102;SDS011;48077;48.104;11.702;2023-08-06T07:05:56;107.30;;;96.25;;
62102;SDS011;48077;48.104;11.702;2023-08-06T07:08:21;108.18;;;96.90;;
62102;SDS011;48077;48.104;11.702;2023-08-06T07:10:45;108.75;;;97.28;;
62102;SDS011;48077;48.104;11.702;2023-08-06T07:13:08;107.97;;;96.40;;
62102;SDS011;48077;48.104;11.702;2023-08-06T07:15:32;108.20;;;96.63;;
62102;SDS011;48077;48.104;11.702;2023-08-06T07:17:56;98.63;;;88.63;;
62102;SDS011;48077;48.104;11.702;2023-08-06T07:20:19;104.30;;;93.18;;
62102;SDS011;48077;48.104;11.702;2023-08-06T07:22:43;104.05;;;93.25;;
62102;SDS011;48077;48.104;11.702;2023-08-06T07:25:07;104.43;;;93.57;;
62102;SDS011;48077;48.104;11.702;2023-08-06T07:27:31;100.75;;;90.30;;
62102;SDS011;48077;48.104;11.702;2023-08-06T07:29:55;96.72;;;86.70;;
62102;SDS011;48077;48.104;11.702;2023-08-06T07:32:18;95.82;;;86.15;;
62102;SDS011;48077;48.104;11.702;2023-08-06T07:34:42;98.93;;;88.68;;
62102;SDS011;48077;48.104;11.702;2023-08-06T07:37:05;101.97;;;91.30;;
62102;SDS011;48077;48.104;11.702;2023-08-06T07:39:28;101.75;;;91.32;;
62102;SDS011;48077;48.104;11.702;2023-08-06T07:41:52;97.75;;;87.97;;
62102;SDS011;48077;48.104;11.702;2023-08-06T07:44:15;98.00;;;87.90;;
62102;SDS011;48077;48.104;11.702;2023-08-06T07:46:39;99.95;;;89.68;;
62102;SDS011;48077;48.104;11.702;2023-08-06T07:49:02;101.20;;;90.80;;
62102;SDS011;48077;48.104;11.702;2023-08-06T07:51:28;104.53;;;93.55;;
62102;SDS011;48077;48.104;11.702;2023-08-06T07:53:52;100.88;;;90.50;;
62102;SDS011;48077;48.104;11.702;2023-08-06T07:56:15;102.93;;;92.22;;
62102;SDS011;48077;48.104;11.702;2023-08-06T07:58:39;100.43;;;90.13;;
62102;SDS011;48077;48.104;11.702;2023-08-06T08:01:02;103.35;;;92.63;;
62102;SDS011;48077;48.104;11.702;2023-08-06T08:03:25;106.10;;;95.13;;
62102;SDS011;48077;48.104;11.702;2023-08-06T08:05:49;103.13;;;92.50;;
62102;SDS011;48077;48.104;11.702;2023-08-06T08:08:12;109.75;;;98.03;;
62102;SDS011;48077;48.104;11.702;2023-08-06T08:10:36;105.20;;;94.22;;
62102;SDS011;48077;48.104;11.702;2023-08-06T08:13:01;106.35;;;95.28;;
62102;SDS011;48077;48.104;11.702;2023-08-06T08:15:25;102.57;;;92.03;;
62102;SDS011;48077;48.104;11.702;2023-08-06T08:17:51;101.72;;;91.30;;
62102;SDS011;48077;48.104;11.702;2023-08-06T08:20:16;103.65;;;92.60;;
62102;SDS011;48077;48.104;11.702;2023-08-06T08:22:39;97.90;;;87.95;;
62102;SDS011;48077;48.104;11.702;2023-08-06T08:25:03;97.60;;;87.68;;
62102;SDS011;48077;48.104;11.702;2023-08-06T08:27:27;93.93;;;84.60;;
62102;SDS011;48077;48.104;11.702;2023-08-06T08:29:50;92.13;;;83.20;;
62102;SDS011;48077;48.104;11.702;2023-08-06T08:32:14;92.47;;;83.32;;
62102;SDS011;48077;48.104;11.702;2023-08-06T08:34:37;92.05;;;83.10;;
62102;SDS011;48077;48.104;11.702;2023-08-06T08:37:00;93.47;;;84.15;;
62102;SDS011;48077;48.104;11.702;2023-08-06T08:39:24;87.40;;;78.90;;
62102;SDS011;48077;48.104;11.702;2023-08-06T08:41:47;89.43;;;80.68;;
62102;SDS011;48077;48.104;11.702;2023-08-06T08:44:10;86.38;;;77.65;;
62102;SDS011;48077;48.104;11.702;2023-08-06T08:49:03;103.00;;;92.22;;
62102;SDS011;48077;48.104;11.702;2023-08-06T08:51:27;92.40;;;82.95;;
62102;SDS011;48077;48.104;11.702;2023-08-06T08:53:53;84.50;;;76.35;;
62102;SDS011;48077;48.104;11.702;2023-08-06T08:56:19;80.50;;;72.70;;
62102;SDS011;48077;48.104;11.702;2023-08-06T08:58:42;80.80;;;73.10;;
62102;SDS011;48077;48.104;11.702;2023-08-06T09:01:06;81.22;;;73.55;;
62102;SDS011;48077;48.104;11.702;2023-08-06T09:03:30;85.85;;;77.55;;
62102;SDS011;48077;48.104;11.702;2023-08-06T09:05:54;81.90;;;74.28;;
62102;SDS011;48077;48.104;11.702;2023-08-06T09:08:25;88.72;;;79.95;;
62102;SDS011;48077;48.104;11.702;2023-08-06T09:10:53;93.38;;;83.97;;
62102;SDS011;48077;48.104;11.702;2023-08-06T09:13:18;91.53;;;82.35;;
62102;SDS011;48077;48.104;11.702;2023-08-06T09:15:43;87.35;;;78.88;;
62102;SDS011;48077;48.104;11.702;2023-08-06T09:18:10;86.63;;;78.22;;
62102;SDS011;48077;48.104;11.702;2023-08-06T09:20:34;84.07;;;75.82;;
62102;SDS011;48077;48.104;11.702;2023-08-06T09:22:58;88.20;;;79.47;;
62102;SDS011;48077;48.104;11.702;2023-08-06T09:25:22;90.25;;;81.30;;
62102;SDS011;48077;48.104;11.702;2023-08-06T09:27:50;90.22;;;81.40;;
62102;SDS011;48077;48.104;11.702;2023-08-06T09:30:19;95.07;;;85.45;;
62102;SDS011;48077;48.104;11.702;2023-08-06T09:33:00;95.95;;;86.07;;
62102;SDS011;48077;48.104;11.702;2023-08-06T09:35:24;94.85;;;85.13;;
62102;SDS011;48077;48.104;11.702;2023-08-06T09:37:47;90.63;;;81.55;;
62102;SDS011;48077;48.104;11.702;2023-08-06T09:40:27;99.05;;;88.60;;
62102;SDS011;48077;48.104;11.702;2023-08-06T09:42:52;94.90;;;85.32;;
62102;SDS011;48077;48.104;11.702;2023-08-06T09:45:16;92.50;;;83.18;;
62102;SDS011;48077;48.104;11.702;2023-08-06T09:47:39;89.57;;;80.80;;
62102;SDS011;48077;48.104;11.702;2023-08-06T09:50:03;88.78;;;80.07;;
62102;SDS011;48077;48.104;11.702;2023-08-06T09:52:26;99.38;;;88.80;;
62102;SDS011;48077;48.104;11.702;2023-08-06T09:54:50;92.65;;;83.20;;
62102;SDS011;48077;48.104;11.702;2023-08-06T09:57:15;93.57;;;83.97;;
62102;SDS011;48077;48.104;11.702;2023-08-06T09:59:38;92.28;;;83.15;;
62102;SDS011;48077;48.104;11.702;2023-08-06T10:02:07;89.18;;;80.53;;
62102;SDS011;48077;48.104;11.702;2023-08-06T10:04:36;86.70;;;78.38;;
62102;SDS011;48077;48.104;11.702;2023-08-06T10:07:00;91.18;;;81.95;;
62102;SDS011;48077;48.104;11.702;2023-08-06T10:09:24;85.68;;;77.30;;
62102;SDS011;48077;48.104;11.702;2023-08-06T10:11:51;84.32;;;76.10;;
62102;SDS011;48077;48.104;11.702;2023-08-06T10:16:45;103.97;;;93.15;;
62102;SDS011;48077;48.104;11.702;2023-08-06T10:19:10;91.97;;;82.80;;
62102;SDS011;48077;48.104;11.702;2023-08-06T10:21:35;89.72;;;80.95;;
62102;SDS011;48077;48.104;11.702;2023-08-06T10:24:00;89.38;;;80.43;;
62102;SDS011;48077;48.104;11.702;2023-08-06T10:26:27;89.80;;;80.63;;
62102;SDS011;48077;48.104;11.702;2023-08-06T10:28:53;91.05;;;81.93;;
62102;SDS011;48077;48.104;11.702;2023-08-06T10:31:17;91.45;;;82.35;;
62102;SDS011;48077;48.104;11.702;2023-08-06T10:33:47;93.78;;;84.28;;
62102;SDS011;48077;48.104;11.702;2023-08-06T10:36:11;95.25;;;85.68;;
62102;SDS011;48077;48.104;11.702;2023-08-06T10:38:35;98.07;;;87.85;;
62102;SDS011;48077;48.104;11.702;2023-08-06T10:41:07;93.97;;;84.47;;
62102;SDS011;48077;48.104;11.702;2023-08-06T10:43:34;91.10;;;82.00;;
62102;SDS011;48077;48.104;11.702;2023-08-06T10:46:01;95.63;;;85.85;;
62102;SDS011;48077;48.104;11.702;2023-08-06T10:51:01;99.28;;;89.20;;
62102;SDS011;48077;48.104;11.702;2023-08-06T10:53:25;93.70;;;84.30;;
62102;SDS011;48077;48.104;11.702;2023-08-06T10:55:48;93.20;;;84.03;;
62102;SDS011;48077;48.104;11.702;2023-08-06T10:58:12;92.75;;;83.43;;
62102;SDS011;48077;48.104;11.702;2023-08-06T11:00:38;91.53;;;82.18;;
62102;SDS011;48077;48.104;11.702;2023-08-06T11:03:01;98.25;;;87.28;;
62102;SDS011;48077;48.104;11.702;2023-08-06T11:05:26;92.18;;;82.63;;
62102;SDS011;48077;48.104;11.702;2023-08-06T11:07:49;89.88;;;80.88;;
62102;SDS011;48077;48.104;11.702;2023-08-06T11:10:14;90.18;;;81.15;;
62102;SDS011;48077;48.104;11.702;2023-08-06T11:12:40;87.72;;;79.00;;
62102;SDS011;48077;48.104;11.702;2023-08-06T11:15:04;82.40;;;74.50;;
62102;SDS011;48077;48.104;11.702;2023-08-06T11:17:28;87.45;;;78.68;;
62102;SDS011;48077;48.104;11.702;2023-08-06T11:19:52;77.13;;;69.80;;
62102;SDS011;48077;48.104;11.702;2023-08-06T11:22:17;77.00;;;69.53;;
62102;SDS011;48077;48.104;11.702;2023-08-06T11:24:40;77.20;;;69.68;;
62102;SDS011;48077;48.104;11.702;2023-08-06T11:27:10;74.32;;;67.25;;
62102;SDS011;48077;48.104;11.702;2023-08-06T11:29:38;78.38;;;71.10;;
62102;SDS011;48077;48.104;11.702;2023-08-06T11:32:05;79.70;;;72.05;;
62102;SDS011;48077;48.104;11.702;2023-08-06T11:34:29;81.07;;;73.10;;
62102;SDS011;48077;48.104;11.702;2023-08-06T11:36:52;78.35;;;70.85;;
62102;SDS011;48077;48.104;11.702;2023-08-06T11:39:16;79.47;;;71.75;;
62102;SDS011;48077;48.104;11.702;2023-08-06T11:41:39;83.38;;;75.28;;
62102;SDS011;48077;48.104;11.702;2023-08-06T11:44:03;86.63;;;78.07;;
62102;SDS011;48077;48.104;11.702;2023-08-06T11:46:27;84.47;;;76.13;;
62102;SDS011;48077;48.104;11.702;2023-08-06T11:48:51;87.45;;;78.70;;
62102;SDS011;48077;48.104;11.702;2023-08-06T11:51:18;85.68;;;77.35;;
62102;SDS011;48077;48.104;11.702;2023-08-06T11:54:18;83.57;;;75.57;;
62102;SDS011;48077;48.104;11.702;2023-08-06T11:56:34;89.45;;;80.82;;
62102;SDS011;48077;48.104;11.702;2023-08-06T11:58:58;86.18;;;77.90;;
62102;SDS011;48077;48.104;11.702;2023-08-06T12:01:21;85.00;;;76.65;;
62102;SDS011;48077;48.104;11.702;2023-08-06T12:03:45;85.63;;;77.32;;
62102;SDS011;48077;48.104;11.702;2023-08-06T12:06:08;87.60;;;79.03;;
62102;SDS011;48077;48.104;11.702;2023-08-06T12:08:31;90.65;;;81.40;;
62102;SDS011;48077;48.104;11.702;2023-08-06T12:10:55;88.93;;;80.05;;
62102;SDS011;48077;48.104;11.702;2023-08-06T12:13:19;87.95;;;79.07;;
62102;SDS011;48077;48.104;11.702;2023-08-06T12:15:42;91.65;;;82.57;;
62102;SDS011;48077;48.104;11.702;2023-08-06T12:18:05;89.22;;;80.30;;
62102;SDS011;48077;48.104;11.702;2023-08-06T12:20:29;91.47;;;82.15;;
62102;SDS011;48077;48.104;11.702;2023-08-06T12:22:52;89.85;;;80.88;;
62102;SDS011;48077;48.104;11.702;2023-08-06T12:25:15;92.57;;;83.32;;
62102;SDS011;48077;48.104;11.702;2023-08-06T12:27:40;91.10;;;82.30;;
62102;SDS011;48077;48.104;11.702;2023-08-06T12:30:06;91.70;;;82.47;;
62102;SDS011;48077;48.104;11.702;2023-08-06T12:32:29;88.30;;;79.57;;
62102;SDS011;48077;48.104;11.702;2023-08-06T12:34:52;87.53;;;78.88;;
62102;SDS011;48077;48.104;11.702;2023-08-06T12:37:16;90.30;;;81.43;;
62102;SDS011;48077;48.104;11.702;2023-08-06T12:39:39;93.57;;;84.07;;
62102;SDS011;48077;48.104;11.702;2023-08-06T12:42:03;89.95;;;81.20;;
62102;SDS011;48077;48.104;11.702;2023-08-06T12:44:28;93.07;;;83.82;;
62102;SDS011;48077;48.104;11.702;2023-08-06T12:46:51;89.75;;;81.05;;
62102;SDS011;48077;48.104;11.702;2023-08-06T12:49:15;92.00;;;82.95;;
62102;SDS011;48077;48.104;11.702;2023-08-06T12:51:38;87.90;;;79.38;;
62102;SDS011;48077;48.104;11.702;2023-08-06T12:54:01;93.00;;;83.63;;
62102;SDS011;48077;48.104;11.702;2023-08-06T12:56:25;89.45;;;80.72;;
62102;SDS011;48077;48.104;11.702;2023-08-06T12:58:48;93.93;;;84.63;;
62102;SDS011;48077;48.104;11.702;2023-08-06T13:01:12;90.35;;;81.47;;
62102;SDS011;48077;48.104;11.702;2023-08-06T13:03:35;92.47;;;83.45;;
62102;SDS011;48077;48.104;11.702;2023-08-06T13:05:58;99.18;;;89.05;;
62102;SDS011;48077;48.104;11.702;2023-08-06T13:08:22;96.45;;;86.70;;
62102;SDS011;48077;48.104;11.702;2023-08-06T13:10:45;96.50;;;86.88;;
62102;SDS011;48077;48.104;11.702;2023-08-06T13:13:08;98.22;;;88.22;;
62102;SDS011;48077;48.104;11.702;2023-08-06T13:15:33;99.25;;;89.15;;
62102;SDS011;48077;48.104;11.702;2023-08-06T13:17:56;98.28;;;88.47;;
62102;SDS011;48077;48.104;11.702;2023-08-06T13:20:20;94.78;;;85.07;;
62102;SDS011;48077;48.104;11.702;2023-08-06T13:22:43;97.63;;;87.82;;
62102;SDS011;48077;48.104;11.702;2023-08-06T13:25:09;98.65;;;88.47;;
62102;SDS011;48077;48.104;11.702;2023-08-06T13:27:32;91.18;;;82.28;;
62102;SDS011;48077;48.104;11.702;2023-08-06T13:29:56;91.75;;;82.53;;
62102;SDS011;48077;48.104;11.702;2023-08-06T13:32:19;92.00;;;82.75;;
62102;SDS011;48077;48.104;11.702;2023-08-06T13:34:42;87.32;;;78.85;;
62102;SDS011;48077;48.104;11.702;2023-08-06T13:37:06;85.30;;;77.10;;
62102;SDS011;48077;48.104;11.702;2023-08-06T13:39:29;83.28;;;75.10;;
62102;SDS011;48077;48.104;11.702;2023-08-06T13:41:52;87.70;;;78.95;;
62102;SDS011;48077;48.104;11.702;2023-08-06T13:44:16;87.65;;;79.07;;
62102;SDS011;48077;48.104;11.702;2023-08-06T13:46:39;85.82;;;77.50;;
62102;SDS011;48077;48.104;11.702;2023-08-06T13:49:03;90.38;;;81.40;;
62102;SDS011;48077;48.104;11.702;2023-08-06T13:51:26;95.43;;;85.60;;
62102;SDS011;48077;48.104;11.702;2023-08-06T13:53:49;93.20;;;83.82;;
62102;SDS011;48077;48.104;11.702;2023-08-06T13:56:15;94.72;;;85.15;;
62102;SDS011;48077;48.104;11.702;2023-08-06T13:58:40;92.65;;;83.53;;